createdAt,value
2022-09-05T00:01:48.753Z,14.10
2022-09-05T00:04:27.846Z,14.10
2022-09-05T00:07:03.826Z,14.20
2022-09-05T00:10:02.127Z,14.30
2022-09-05T00:12:35.444Z,14.30
2022-09-05T00:15:31.153Z,14.40
2022-09-05T00:23:00.510Z,14.50
2022-09-05T00:24:37.160Z,14.50
2022-09-05T00:25:06.872Z,14.50
2022-09-05T00:27:36.158Z,14.60
2022-09-05T00:31:07.465Z,14.60
2022-09-05T00:33:17.560Z,14.70
2022-09-05T00:36:03.114Z,14.70
2022-09-05T00:38:36.620Z,14.70
2022-09-05T00:41:09.331Z,14.80
2022-09-05T00:43:42.058Z,14.70
2022-09-05T00:46:15.663Z,14.70
2022-09-05T00:48:52.237Z,14.70
2022-09-05T00:51:35.494Z,14.80
2022-09-05T00:54:50.460Z,14.70
2022-09-05T00:57:33.179Z,14.80
2022-09-05T01:00:19.868Z,14.80
2022-09-05T01:03:21.828Z,14.80
2022-09-05T01:06:05.176Z,14.80
2022-09-05T01:08:53.460Z,14.80
2022-09-05T01:11:39.406Z,14.80
2022-09-05T01:14:21.766Z,14.80
2022-09-05T01:17:09.921Z,14.80
2022-09-05T01:19:51.835Z,14.80
2022-09-05T01:22:36.154Z,14.80
2022-09-05T01:25:20.291Z,14.80
2022-09-05T01:29:14.177Z,14.80
2022-09-05T01:30:51.760Z,14.80
2022-09-05T01:33:32.135Z,14.80
2022-09-05T01:36:33.222Z,14.80
2022-09-05T01:40:12.171Z,14.90
2022-09-05T01:42:00.382Z,14.90
2022-09-05T01:44:42.797Z,14.90
2022-09-05T01:47:40.229Z,14.90
2022-09-05T01:50:24.905Z,14.90
2022-09-05T01:53:25.386Z,14.90
2022-09-05T01:56:26.114Z,14.80
2022-09-05T01:59:07.388Z,14.80
2022-09-05T02:01:49.800Z,14.80
2022-09-05T02:04:48.598Z,14.90
2022-09-05T02:07:31.829Z,14.80
2022-09-05T02:10:31.756Z,14.90
2022-09-05T02:13:12.938Z,14.90
2022-09-05T02:15:59.816Z,14.80
2022-09-05T02:18:44.189Z,14.80
2022-09-05T02:21:23.236Z,14.80
2022-09-05T02:24:02.625Z,14.80
2022-09-05T02:26:35.656Z,14.80
2022-09-05T02:29:12.388Z,14.80
2022-09-05T02:32:02.624Z,14.70
2022-09-05T02:34:41.299Z,14.70
2022-09-05T02:37:15.771Z,14.70
2022-09-05T02:45:00.100Z,14.80
2022-09-05T02:45:14.649Z,14.70
2022-09-05T02:46:00.019Z,14.70
2022-09-05T02:48:39.078Z,14.70
2022-09-05T02:57:27.592Z,14.70
2022-09-05T02:57:34.880Z,14.70
2022-09-05T02:57:45.961Z,14.70
2022-09-05T03:00:09.069Z,14.70
2022-09-05T03:02:44.117Z,14.70
2022-09-05T03:05:19.221Z,14.70
2022-09-05T03:08:20.467Z,14.70
2022-09-05T03:11:20.359Z,14.70
2022-09-05T03:14:26.442Z,14.60
2022-09-05T03:17:24.860Z,14.60
2022-09-05T03:20:29.565Z,14.60
2022-09-05T03:23:23.231Z,14.60
2022-09-05T03:26:33.504Z,14.60
2022-09-05T03:29:39.228Z,14.60
2022-09-05T03:32:29.912Z,14.60
2022-09-05T03:35:35.713Z,14.50
2022-09-05T03:38:30.307Z,14.50
2022-09-05T03:41:19.040Z,14.60
2022-09-05T03:44:05.204Z,14.60
2022-09-05T03:46:59.405Z,14.60
2022-09-05T03:54:33.767Z,14.60
2022-09-05T03:57:16.513Z,14.60
2022-09-05T03:57:17.190Z,14.60
2022-09-05T03:59:17.175Z,14.60
2022-09-05T04:02:43.679Z,14.50
2022-09-05T04:08:14.028Z,14.50
2022-09-05T04:08:23.638Z,14.50
2022-09-05T04:10:36.550Z,14.50
2022-09-05T04:13:09.443Z,14.60
2022-09-05T04:15:43.360Z,14.50
2022-09-05T04:18:25.686Z,14.50
2022-09-05T04:21:06.019Z,14.50
2022-09-05T04:23:42.380Z,14.60
2022-09-05T04:26:23.085Z,14.50
2022-09-05T04:29:03.295Z,14.50
2022-09-05T04:31:44.306Z,14.50
2022-09-05T04:34:32.063Z,14.50
2022-09-05T04:37:03.052Z,14.50
2022-09-05T04:39:33.116Z,14.50
2022-09-05T04:42:15.455Z,14.50
2022-09-05T04:44:49.088Z,14.50
2022-09-05T04:47:23.353Z,14.50
2022-09-05T04:49:58.167Z,14.50
2022-09-05T04:52:49.184Z,14.50
2022-09-05T04:55:20.243Z,14.50
2022-09-05T04:57:54.503Z,14.50
2022-09-05T05:05:58.461Z,14.50
2022-09-05T05:06:16.671Z,14.50
2022-09-05T05:06:43.813Z,14.50
2022-09-05T05:09:03.592Z,14.50
2022-09-05T05:17:50.874Z,14.50
2022-09-05T05:18:08.470Z,14.50
2022-09-05T05:18:13.564Z,14.50
2022-09-05T05:20:41.238Z,14.50
2022-09-05T05:23:15.297Z,14.50
2022-09-05T05:25:49.312Z,14.50
2022-09-05T05:28:26.424Z,14.50
2022-09-05T05:31:01.177Z,14.50
2022-09-05T05:33:34.649Z,14.60
2022-09-05T05:36:10.079Z,14.60
2022-09-05T05:38:46.962Z,14.60
2022-09-05T05:41:21.507Z,14.60
2022-09-05T05:43:51.137Z,14.70
2022-09-05T05:46:32.145Z,14.70
2022-09-05T05:49:24.435Z,14.70
2022-09-05T05:52:13.732Z,14.70
2022-09-05T05:54:50.469Z,14.80
2022-09-05T05:57:48.660Z,14.80
2022-09-05T06:00:27.317Z,14.80
2022-09-05T06:03:24.953Z,14.80
2022-09-05T06:06:31.835Z,14.80
2022-09-05T06:14:48.344Z,14.90
2022-09-05T06:15:04.035Z,14.90
2022-09-05T06:16:32.732Z,15.00
2022-09-05T06:19:49.768Z,15.00
2022-09-05T06:22:54.927Z,15.00
2022-09-05T06:25:57.506Z,15.10
2022-09-05T06:28:42.876Z,15.10
2022-09-05T06:31:30.550Z,15.20
2022-09-05T06:34:33.281Z,15.20
2022-09-05T06:37:09.700Z,15.20
2022-09-05T06:39:58.466Z,15.20
2022-09-05T06:42:42.592Z,15.30
2022-09-05T06:45:27.473Z,15.30
2022-09-05T06:48:06.134Z,15.40
2022-09-05T06:51:08.090Z,15.40
2022-09-05T06:53:53.240Z,15.40
2022-09-05T06:56:40.230Z,15.40
2022-09-05T06:59:41.684Z,15.40
2022-09-05T07:02:28.618Z,15.50
2022-09-05T07:05:38.829Z,15.60
2022-09-05T07:08:36.407Z,15.60
2022-09-05T07:11:17.361Z,15.70
2022-09-05T07:14:00.048Z,15.70
2022-09-05T07:16:41.756Z,15.80
2022-09-05T07:19:25.452Z,15.80
2022-09-05T07:22:06.334Z,15.90
2022-09-05T07:24:55.623Z,15.90
2022-09-05T07:27:49.825Z,15.90
2022-09-05T07:30:24.892Z,15.90
2022-09-05T07:32:54.906Z,16.00
2022-09-05T07:35:29.296Z,16.10
2022-09-05T07:38:06.736Z,16.10
2022-09-05T07:40:39.409Z,16.10
2022-09-05T07:43:10.853Z,16.20
2022-09-05T07:45:52.261Z,16.20
2022-09-05T07:48:34.314Z,16.20
2022-09-05T07:56:51.198Z,16.20
2022-09-05T07:57:09.785Z,16.30
2022-09-05T07:57:31.232Z,16.30
2022-09-05T07:59:46.977Z,16.40
2022-09-05T08:02:15.199Z,16.40
2022-09-05T08:04:43.326Z,16.50
2022-09-05T08:07:49.684Z,16.50
2022-09-05T08:10:10.694Z,16.50
2022-09-05T08:13:22.780Z,16.50
2022-09-05T08:16:02.938Z,16.60
2022-09-05T08:18:28.468Z,16.70
2022-09-05T08:21:00.445Z,16.80
2022-09-05T08:23:49.118Z,16.80
2022-09-05T08:26:26.168Z,16.80
2022-09-05T08:29:02.827Z,17.00
2022-09-05T08:31:41.789Z,17.00
2022-09-05T08:34:15.654Z,16.90
2022-09-05T08:36:47.068Z,17.00
2022-09-05T08:39:20.734Z,17.10
2022-09-05T08:42:06.267Z,17.10
2022-09-05T08:46:42.115Z,17.20
2022-09-05T08:47:43.358Z,17.30
2022-09-05T08:50:31.111Z,17.30
2022-09-05T08:53:26.878Z,17.40
2022-09-05T08:56:02.643Z,17.50
2022-09-05T08:59:27.244Z,17.50
2022-09-05T09:02:42.908Z,17.60
2022-09-05T09:05:02.117Z,17.70
2022-09-05T09:07:51.140Z,17.80
2022-09-05T09:10:44.470Z,17.90
2022-09-05T09:13:32.211Z,18.10
2022-09-05T09:16:06.505Z,18.20
2022-09-05T09:18:46.737Z,18.30
2022-09-05T09:21:26.021Z,18.30
2022-09-05T09:24:06.288Z,18.40
2022-09-05T09:26:40.384Z,18.50
2022-09-05T09:29:12.851Z,18.60
2022-09-05T09:32:00.729Z,18.70
2022-09-05T09:34:53.305Z,19.00
2022-09-05T09:38:04.776Z,19.00
2022-09-05T09:41:15.900Z,19.10
2022-09-05T09:44:07.891Z,19.10
2022-09-05T09:46:41.925Z,19.20
2022-09-05T09:49:27.622Z,19.20
2022-09-05T09:52:31.581Z,19.30
2022-09-05T09:55:39.067Z,19.40
2022-09-05T09:58:31.748Z,19.50
2022-09-05T10:01:35.866Z,19.40
2022-09-05T10:10:50.595Z,19.60
2022-09-05T10:11:09.108Z,19.60
2022-09-05T10:11:36.135Z,19.70
2022-09-05T10:14:30.717Z,19.70
2022-09-05T10:17:30.311Z,19.80
2022-09-05T10:20:29.656Z,20.10
2022-09-05T10:23:37.358Z,20.20
2022-09-05T10:26:43.205Z,20.50
2022-09-05T10:29:35.093Z,20.70
2022-09-05T10:35:09.967Z,20.80
2022-09-05T10:35:16.921Z,20.70
2022-09-05T10:37:55.318Z,20.70
2022-09-05T10:40:25.625Z,20.80
2022-09-05T10:43:00.980Z,20.80
2022-09-05T10:45:39.756Z,20.80
2022-09-05T10:48:14.040Z,21.00
2022-09-05T10:50:45.810Z,21.10
2022-09-05T10:53:39.938Z,21.20
2022-09-05T10:56:15.540Z,21.20
2022-09-05T11:00:32.601Z,21.40
2022-09-05T11:02:29.325Z,21.50
2022-09-05T11:04:52.539Z,21.50
2022-09-05T11:07:29.706Z,21.50
2022-09-05T11:10:11.594Z,21.60
2022-09-05T11:13:01.336Z,21.70
2022-09-05T11:15:44.100Z,21.90
2022-09-05T11:18:55.974Z,21.90
2022-09-05T11:21:31.099Z,22.30
2022-09-05T11:24:05.164Z,23.00
2022-09-05T11:26:42.276Z,23.60
2022-09-05T11:29:13.346Z,23.60
2022-09-05T11:33:01.774Z,23.80
2022-09-05T11:40:05.889Z,25.00
2022-09-05T11:40:07.645Z,24.60
2022-09-05T11:41:53.183Z,25.80
2022-09-05T11:44:43.963Z,26.80
2022-09-05T11:47:33.207Z,27.40
2022-09-05T11:50:46.547Z,27.30
2022-09-05T11:53:44.101Z,26.60
2022-09-05T11:56:45.620Z,26.00
2022-09-05T12:00:10.762Z,25.80
2022-09-05T12:06:22.336Z,25.70
2022-09-05T12:08:55.800Z,26.10
2022-09-05T12:11:43.354Z,26.50
2022-09-05T12:14:34.276Z,26.90
2022-09-05T12:17:10.172Z,27.00
2022-09-05T12:19:55.321Z,26.70
2022-09-05T12:22:28.291Z,26.30
2022-09-05T12:27:36.693Z,26.50
2022-09-05T12:29:27.514Z,26.30
2022-09-05T12:33:33.953Z,26.50
2022-09-05T12:36:11.387Z,26.90
2022-09-05T12:40:53.763Z,26.70
2022-09-05T12:41:35.459Z,26.00
2022-09-05T12:41:37.435Z,26.90
2022-09-05T12:44:36.830Z,27.70
2022-09-05T12:48:38.517Z,29.20
2022-09-05T12:51:11.114Z,29.50
2022-09-05T12:53:45.981Z,29.60
2022-09-05T12:57:53.017Z,29.70
2022-09-05T13:03:01.344Z,29.70
2022-09-05T13:03:13.136Z,29.70
2022-09-05T13:05:04.962Z,29.50
2022-09-05T13:07:41.066Z,28.90
2022-09-05T13:11:24.134Z,28.80
2022-09-05T13:14:49.645Z,28.80
2022-09-05T13:16:03.332Z,29.00
2022-09-05T13:18:39.203Z,29.20
2022-09-05T13:21:12.041Z,29.30
2022-09-05T13:23:48.768Z,29.30
2022-09-05T13:26:25.409Z,29.30
2022-09-05T13:29:07.045Z,29.20
2022-09-05T13:37:55.248Z,29.30
2022-09-05T13:38:14.305Z,29.30
2022-09-05T13:41:00.184Z,29.60
2022-09-05T13:43:36.425Z,29.60
2022-09-05T13:46:12.517Z,29.70
2022-09-05T13:51:43.686Z,29.40
2022-09-05T13:54:39.240Z,29.30
2022-09-05T13:57:33.275Z,29.30
2022-09-05T14:00:39.131Z,29.40
2022-09-05T14:03:40.344Z,29.30
2022-09-05T14:06:46.536Z,29.30
2022-09-05T14:09:35.771Z,29.60
2022-09-05T14:12:19.500Z,29.90
2022-09-05T14:15:11.446Z,30.00
2022-09-05T14:18:21.637Z,30.10
2022-09-05T14:21:14.741Z,29.50
2022-09-05T14:23:53.322Z,29.30
2022-09-05T14:26:28.027Z,29.50
2022-09-05T14:29:05.970Z,29.70
2022-09-05T14:37:19.197Z,29.40
2022-09-05T14:37:45.204Z,29.10
2022-09-05T14:38:11.681Z,29.00
2022-09-05T14:41:15.291Z,28.90
2022-09-05T14:44:21.208Z,28.80
2022-09-05T14:47:02.659Z,28.60
2022-09-05T14:49:49.554Z,28.60
2022-09-05T14:52:24.505Z,28.30
2022-09-05T15:02:45.054Z,27.60
2022-09-05T15:02:53.202Z,27.80
2022-09-05T15:06:37.226Z,27.10
2022-09-05T15:12:14.490Z,26.90
2022-09-05T15:12:33.113Z,26.60
2022-09-05T15:15:20.143Z,26.30
2022-09-05T15:17:52.642Z,26.10
2022-09-05T15:20:36.825Z,25.90
2022-09-05T15:23:11.150Z,25.70
2022-09-05T15:25:47.618Z,25.60
2022-09-05T15:28:22.333Z,25.40
2022-09-05T15:30:58.669Z,25.10
2022-09-05T15:33:29.317Z,24.80
2022-09-05T15:35:58.679Z,24.60
2022-09-05T15:38:30.029Z,24.30
2022-09-05T15:41:09.902Z,24.10
2022-09-05T15:43:58.244Z,23.90
2022-09-05T15:46:35.665Z,23.80
2022-09-05T15:49:05.356Z,23.60
2022-09-05T15:51:48.367Z,23.50
2022-09-05T15:54:38.680Z,23.30
2022-09-05T15:57:17.659Z,23.20
2022-09-05T15:59:52.697Z,23.10
2022-09-05T16:02:24.335Z,23.00
2022-09-05T16:10:30.983Z,22.80
2022-09-05T16:10:44.810Z,22.70
2022-09-05T16:11:06.070Z,22.50
2022-09-05T16:13:52.810Z,22.40
2022-09-05T16:23:11.856Z,22.30
2022-09-05T16:23:14.769Z,22.20
2022-09-05T16:23:26.991Z,22.10
2022-09-05T16:25:09.486Z,22.00
2022-09-05T16:27:51.561Z,21.90
2022-09-05T16:30:24.973Z,21.80
2022-09-05T16:33:00.167Z,21.70
2022-09-05T16:35:31.248Z,21.70
2022-09-05T16:38:09.812Z,21.60
2022-09-05T16:40:40.953Z,21.50
2022-09-05T16:43:13.099Z,21.40
2022-09-05T16:45:48.966Z,21.30
2022-09-05T16:48:31.331Z,21.20
2022-09-05T16:51:13.450Z,21.10
2022-09-05T16:53:57.989Z,21.00
2022-09-05T16:56:34.257Z,20.90
2022-09-05T16:59:04.437Z,20.80
2022-09-05T17:01:54.732Z,20.70
2022-09-05T17:05:03.140Z,20.70
2022-09-05T17:07:53.490Z,20.60
2022-09-05T17:10:25.625Z,20.50
2022-09-05T17:12:54.815Z,20.50
2022-09-05T17:15:27.590Z,20.30
2022-09-05T17:18:21.696Z,20.30
2022-09-05T17:20:55.465Z,20.20
2022-09-05T17:27:19.968Z,20.10
2022-09-05T17:29:48.958Z,19.90
2022-09-05T17:32:47.140Z,19.70
2022-09-05T17:35:42.196Z,19.50
2022-09-05T17:38:30.853Z,19.40
2022-09-05T17:41:22.946Z,19.30
2022-09-05T17:43:58.880Z,19.20
2022-09-05T17:46:29.055Z,19.10
2022-09-05T17:49:19.564Z,19.10
2022-09-05T17:52:27.188Z,18.90
2022-09-05T17:54:57.484Z,18.90
2022-09-05T17:57:44.232Z,18.70
2022-09-05T18:01:00.956Z,18.60
2022-09-05T18:04:16.291Z,18.50
2022-09-05T18:06:59.579Z,18.30
2022-09-05T18:10:12.972Z,18.20
2022-09-05T18:13:13.802Z,18.10
2022-09-05T18:16:03.906Z,18.00
2022-09-05T18:19:28.609Z,17.90
2022-09-05T18:21:25.661Z,17.80
2022-09-05T18:24:04.468Z,17.70
2022-09-05T18:26:41.311Z,17.60
2022-09-05T18:29:24.716Z,17.60
2022-09-05T18:32:13.060Z,17.50
2022-09-05T18:34:46.165Z,17.40
2022-09-05T18:37:47.973Z,17.40
2022-09-05T18:40:35.862Z,17.30
2022-09-05T18:43:10.439Z,17.20
2022-09-05T18:45:52.130Z,17.20
2022-09-05T18:48:28.272Z,17.10
2022-09-05T18:51:15.721Z,17.00
2022-09-05T18:53:47.975Z,16.90
2022-09-05T18:56:39.426Z,16.90
2022-09-05T18:59:24.340Z,16.80
2022-09-05T19:01:58.721Z,16.70
2022-09-05T19:04:41.464Z,16.60
2022-09-05T19:07:13.496Z,16.60
2022-09-05T19:10:03.649Z,16.60
2022-09-05T19:12:53.888Z,16.50
2022-09-05T19:15:25.010Z,16.50
2022-09-05T19:18:26.414Z,16.40
2022-09-05T19:21:12.061Z,16.40
2022-09-05T19:23:48.317Z,16.30
2022-09-05T19:26:16.506Z,16.30
2022-09-05T19:35:22.992Z,16.20
2022-09-05T19:37:12.708Z,16.10
2022-09-05T19:37:15.104Z,16.10
2022-09-05T19:37:38.294Z,16.00
2022-09-05T19:47:25.217Z,15.90
2022-09-05T19:47:41.042Z,15.90
2022-09-05T19:47:52.050Z,15.80
2022-09-05T19:48:39.349Z,15.80
2022-09-05T19:51:17.057Z,15.80
2022-09-05T19:53:56.590Z,15.70
2022-09-05T19:56:36.617Z,15.70
2022-09-05T19:59:16.749Z,15.70
2022-09-05T20:01:46.640Z,15.70
2022-09-05T20:04:18.711Z,15.70
2022-09-05T20:06:50.140Z,15.70
2022-09-05T20:09:19.717Z,15.70
2022-09-05T20:11:49.892Z,15.60
2022-09-05T20:14:20.901Z,15.60
2022-09-05T20:16:50.338Z,15.60
2022-09-05T20:19:28.304Z,15.60
2022-09-05T20:22:11.490Z,15.50
2022-09-05T20:24:49.225Z,15.50
2022-09-05T20:27:17.741Z,15.50
2022-09-05T20:29:55.572Z,15.40
2022-09-05T20:32:38.508Z,15.40
2022-09-05T20:36:32.894Z,15.40
2022-09-05T20:43:15.640Z,15.40
2022-09-05T20:43:32.822Z,15.40
2022-09-05T20:43:57.817Z,15.40
2022-09-05T20:50:44.322Z,15.30
2022-09-05T20:54:09.665Z,15.40
2022-09-05T20:54:13.199Z,15.30
2022-09-05T20:55:37.841Z,15.30
2022-09-05T20:57:51.901Z,15.20
2022-09-05T21:00:23.019Z,15.20
2022-09-05T21:02:54.631Z,15.20
2022-09-05T21:05:28.621Z,15.10
2022-09-05T21:08:16.629Z,15.20
2022-09-05T21:10:54.966Z,15.10
2022-09-05T21:13:26.208Z,15.10
2022-09-05T21:15:55.616Z,15.10
2022-09-05T21:18:32.974Z,15.10
2022-09-05T21:21:27.934Z,15.00
2022-09-05T21:24:17.587Z,14.90
2022-09-05T21:26:49.562Z,14.90
2022-09-05T21:29:27.250Z,14.70
2022-09-05T21:32:00.409Z,14.70
2022-09-05T21:34:32.519Z,14.60
2022-09-05T21:37:07.245Z,14.50
2022-09-05T21:39:40.079Z,14.50
2022-09-05T21:42:37.227Z,14.40
2022-09-05T21:47:43.657Z,14.40
2022-09-05T21:47:53.107Z,14.40
2022-09-05T21:50:30.784Z,14.30
2022-09-05T21:54:28.535Z,14.20
2022-09-05T21:59:21.157Z,14.20
2022-09-05T21:59:29.498Z,14.20
2022-09-05T22:01:52.067Z,14.10
2022-09-05T22:04:18.974Z,14.10
2022-09-05T22:06:48.152Z,14.00
2022-09-05T22:09:17.059Z,14.00
2022-09-05T22:11:50.247Z,13.90
2022-09-05T22:14:21.177Z,13.90
2022-09-05T22:16:51.453Z,13.90
2022-09-05T22:19:26.167Z,13.90
2022-09-05T22:22:15.683Z,13.90
2022-09-05T22:24:47.823Z,13.80
2022-09-05T22:27:19.918Z,13.80
2022-09-05T22:29:51.100Z,13.80
2022-09-05T22:32:34.553Z,13.80
2022-09-05T22:35:26.815Z,13.70
2022-09-05T22:37:59.225Z,13.60
2022-09-05T22:40:28.267Z,13.50
2022-09-05T22:42:57.701Z,13.50
2022-09-05T22:45:27.389Z,13.40
2022-09-05T22:47:55.609Z,13.40
2022-09-05T22:50:23.967Z,13.30
2022-09-05T22:52:52.144Z,13.30
2022-09-05T22:55:20.418Z,13.20
2022-09-05T22:57:48.561Z,13.20
2022-09-05T23:00:16.716Z,13.20
2022-09-05T23:02:52.243Z,13.10
2022-09-05T23:05:20.845Z,13.10
2022-09-05T23:07:48.949Z,13.10
2022-09-05T23:10:18.914Z,13.10
2022-09-05T23:12:47.096Z,13.00
2022-09-05T23:15:15.766Z,13.00
2022-09-05T23:17:43.865Z,13.00
2022-09-05T23:20:13.383Z,13.00
2022-09-05T23:22:42.974Z,13.00
2022-09-05T23:25:11.046Z,12.90
2022-09-05T23:27:39.593Z,12.90
2022-09-05T23:30:09.506Z,12.90
2022-09-05T23:32:37.825Z,12.80
2022-09-05T23:35:06.525Z,12.80
2022-09-05T23:37:35.968Z,12.80
2022-09-05T23:40:04.836Z,12.70
2022-09-05T23:42:32.905Z,12.70
2022-09-05T23:45:00.959Z,12.70
2022-09-05T23:47:29.848Z,12.70
2022-09-05T23:49:57.960Z,12.70
2022-09-05T23:52:26.005Z,12.70
2022-09-05T23:54:55.677Z,12.70
2022-09-05T23:57:24.640Z,12.60
2022-09-05T23:59:52.918Z,12.60
